createdAt,value
2022-07-27T00:01:10.377Z,99.90
2022-07-27T00:03:37.974Z,99.90
2022-07-27T00:06:05.052Z,99.90
2022-07-27T00:08:32.073Z,99.90
2022-07-27T00:10:59.044Z,99.90
2022-07-27T00:13:26.580Z,99.90
2022-07-27T00:15:54.013Z,99.90
2022-07-27T00:18:21.664Z,99.90
2022-07-27T00:20:48.900Z,99.90
2022-07-27T00:23:15.933Z,99.90
2022-07-27T00:25:42.859Z,99.90
2022-07-27T00:28:09.825Z,99.90
2022-07-27T00:30:37.001Z,99.90
2022-07-27T00:33:05.565Z,99.90
2022-07-27T00:35:32.853Z,99.90
2022-07-27T00:38:01.266Z,99.90
2022-07-27T00:40:28.243Z,99.90
2022-07-27T00:42:55.329Z,99.90
2022-07-27T00:45:22.292Z,99.90
2022-07-27T00:47:54.538Z,99.90
2022-07-27T00:50:22.234Z,99.90
2022-07-27T00:52:49.279Z,99.90
2022-07-27T00:55:16.830Z,99.90
2022-07-27T00:57:58.574Z,99.90
2022-07-27T01:00:28.083Z,99.90
2022-07-27T01:02:55.830Z,99.90
2022-07-27T01:05:24.155Z,99.90
2022-07-27T01:08:05.692Z,99.90
2022-07-27T01:10:33.161Z,99.90
2022-07-27T01:13:00.611Z,99.90
2022-07-27T01:15:27.723Z,99.90
2022-07-27T01:17:54.723Z,99.90
2022-07-27T01:20:21.736Z,99.90
2022-07-27T01:22:48.803Z,99.90
2022-07-27T01:25:15.894Z,99.90
2022-07-27T01:27:43.122Z,99.90
2022-07-27T01:30:29.701Z,99.90
2022-07-27T01:33:04.393Z,99.90
2022-07-27T01:35:32.690Z,99.90
2022-07-27T01:38:00.169Z,99.90
2022-07-27T01:40:27.249Z,99.90
2022-07-27T01:42:54.332Z,99.90
2022-07-27T01:45:21.832Z,99.90
2022-07-27T01:47:49.391Z,99.90
2022-07-27T01:50:16.677Z,99.90
2022-07-27T01:52:43.596Z,99.90
2022-07-27T01:55:12.036Z,99.90
2022-07-27T01:57:39.743Z,99.90
2022-07-27T02:00:11.764Z,99.90
2022-07-27T02:02:41.650Z,99.90
2022-07-27T02:05:13.158Z,99.90
2022-07-27T02:07:41.875Z,99.90
2022-07-27T02:10:10.179Z,99.90
2022-07-27T02:12:37.630Z,99.90
2022-07-27T02:15:15.500Z,99.90
2022-07-27T02:17:44.869Z,99.90
2022-07-27T02:20:15.083Z,99.90
2022-07-27T02:22:44.694Z,99.90
2022-07-27T02:25:13.908Z,99.90
2022-07-27T02:27:42.224Z,99.90
2022-07-27T02:30:11.370Z,99.90
2022-07-27T02:32:38.739Z,99.90
2022-07-27T02:35:18.768Z,99.90
2022-07-27T02:37:48.470Z,99.90
2022-07-27T02:40:17.496Z,99.90
2022-07-27T02:42:45.891Z,99.90
2022-07-27T02:45:16.060Z,99.90
2022-07-27T02:47:44.815Z,99.90
2022-07-27T02:50:12.259Z,99.90
2022-07-27T02:52:39.848Z,99.90
2022-07-27T02:55:08.275Z,99.90
2022-07-27T02:57:37.919Z,99.90
2022-07-27T03:00:12.993Z,99.90
2022-07-27T03:02:40.726Z,99.90
2022-07-27T03:05:10.033Z,99.90
2022-07-27T03:07:37.565Z,99.90
2022-07-27T03:10:05.150Z,99.90
2022-07-27T03:12:32.350Z,99.90
2022-07-27T03:14:59.346Z,99.90
2022-07-27T03:17:26.608Z,99.90
2022-07-27T03:19:53.531Z,99.90
2022-07-27T03:22:20.579Z,99.90
2022-07-27T03:24:47.505Z,99.90
2022-07-27T03:27:14.523Z,99.90
2022-07-27T03:29:41.640Z,99.90
2022-07-27T03:32:08.644Z,99.90
2022-07-27T03:34:35.608Z,99.90
2022-07-27T03:37:02.586Z,99.90
2022-07-27T03:39:29.527Z,99.90
2022-07-27T03:41:56.536Z,99.90
2022-07-27T03:44:23.468Z,99.90
2022-07-27T03:46:50.453Z,99.90
2022-07-27T03:49:17.539Z,99.90
2022-07-27T03:51:44.660Z,99.90
2022-07-27T03:54:11.783Z,99.90
2022-07-27T03:56:38.769Z,99.90
2022-07-27T03:59:05.968Z,99.90
2022-07-27T04:01:33.030Z,99.90
2022-07-27T04:03:59.980Z,99.90
2022-07-27T04:06:27.204Z,99.90
2022-07-27T04:08:59.666Z,99.90
2022-07-27T04:11:37.558Z,99.90
2022-07-27T04:14:11.328Z,99.90
2022-07-27T04:16:40.405Z,99.90
2022-07-27T04:19:07.676Z,99.90
2022-07-27T04:21:35.283Z,99.90
2022-07-27T04:24:02.784Z,99.90
2022-07-27T04:26:29.942Z,99.90
2022-07-27T04:28:56.958Z,99.90
2022-07-27T04:31:24.245Z,99.90
2022-07-27T04:33:51.391Z,99.90
2022-07-27T04:36:18.502Z,99.90
2022-07-27T04:38:45.560Z,99.90
2022-07-27T04:41:12.898Z,99.90
2022-07-27T04:43:39.917Z,99.90
2022-07-27T04:46:09.487Z,99.90
2022-07-27T04:48:38.925Z,99.90
2022-07-27T04:51:08.455Z,99.90
2022-07-27T04:53:36.969Z,99.90
2022-07-27T04:56:20.943Z,99.90
2022-07-27T04:58:47.977Z,99.90
2022-07-27T05:01:15.173Z,99.90
2022-07-27T05:03:43.385Z,99.90
2022-07-27T05:06:10.700Z,99.90
2022-07-27T05:08:37.806Z,99.90
2022-07-27T05:11:04.774Z,99.90
2022-07-27T05:13:31.796Z,99.90
2022-07-27T05:15:58.813Z,99.90
2022-07-27T05:18:25.905Z,99.90
2022-07-27T05:20:53.283Z,99.90
2022-07-27T05:23:20.564Z,99.90
2022-07-27T05:25:47.865Z,99.90
2022-07-27T05:28:15.063Z,99.90
2022-07-27T05:30:42.519Z,99.90
2022-07-27T05:33:09.444Z,99.90
2022-07-27T05:35:37.221Z,99.90
2022-07-27T05:38:05.015Z,99.90
2022-07-27T05:40:31.975Z,99.90
2022-07-27T05:42:59.577Z,99.90
2022-07-27T05:45:26.752Z,99.90
2022-07-27T05:47:59.101Z,99.90
2022-07-27T05:50:26.109Z,99.90
2022-07-27T05:52:53.037Z,99.90
2022-07-27T05:55:20.076Z,99.90
2022-07-27T05:57:47.015Z,99.90
2022-07-27T06:00:14.327Z,99.90
2022-07-27T06:02:41.581Z,99.90
2022-07-27T06:05:14.846Z,99.90
2022-07-27T06:08:06.769Z,99.90
2022-07-27T06:10:36.198Z,99.90
2022-07-27T06:13:08.872Z,99.90
2022-07-27T06:15:37.125Z,99.90
2022-07-27T06:18:06.719Z,99.90
2022-07-27T06:20:33.739Z,99.90
2022-07-27T06:23:03.408Z,99.90
2022-07-27T06:25:35.990Z,99.90
2022-07-27T06:28:05.647Z,99.90
2022-07-27T06:30:33.159Z,99.90
2022-07-27T06:33:04.872Z,99.90
2022-07-27T06:35:34.052Z,99.90
2022-07-27T06:38:01.368Z,99.90
2022-07-27T06:40:29.875Z,99.90
2022-07-27T06:42:58.205Z,99.90
2022-07-27T06:45:25.183Z,99.90
2022-07-27T06:47:52.160Z,99.90
2022-07-27T06:50:20.556Z,99.90
2022-07-27T06:52:48.634Z,99.90
2022-07-27T06:55:15.966Z,99.90
2022-07-27T06:57:43.292Z,99.90
2022-07-27T07:00:11.824Z,99.90
2022-07-27T07:02:40.245Z,99.90
2022-07-27T07:05:07.588Z,99.90
2022-07-27T07:07:34.513Z,99.90
2022-07-27T07:10:01.812Z,99.90
2022-07-27T07:12:28.767Z,99.90
2022-07-27T07:14:55.876Z,99.90
2022-07-27T07:17:22.905Z,99.90
2022-07-27T07:19:50.169Z,99.90
2022-07-27T07:22:17.086Z,99.90
2022-07-27T07:27:36.899Z,99.90
2022-07-27T07:30:05.003Z,99.90
2022-07-27T07:32:33.726Z,99.90
2022-07-27T07:35:01.558Z,99.90
2022-07-27T07:37:33.828Z,99.90
2022-07-27T07:40:24.865Z,99.90
2022-07-27T07:43:02.520Z,99.90
2022-07-27T07:45:33.743Z,99.90
2022-07-27T07:48:00.796Z,99.90
2022-07-27T07:50:28.286Z,99.90
2022-07-27T07:52:55.726Z,99.90
2022-07-27T07:55:26.043Z,99.90
2022-07-27T07:57:53.236Z,99.90
2022-07-27T08:00:21.710Z,99.90
2022-07-27T08:02:52.574Z,99.90
2022-07-27T08:05:20.373Z,98.40
2022-07-27T08:07:47.866Z,98.30
2022-07-27T08:10:17.246Z,97.90
2022-07-27T08:12:47.947Z,97.70
2022-07-27T08:15:16.612Z,98.50
2022-07-27T08:17:44.577Z,98.90
2022-07-27T08:20:13.714Z,99.90
2022-07-27T08:22:41.256Z,98.40
2022-07-27T08:25:09.886Z,98.90
2022-07-27T08:27:40.175Z,98.30
2022-07-27T08:30:10.532Z,98.60
2022-07-27T08:32:55.137Z,98.10
2022-07-27T08:35:22.905Z,98.50
2022-07-27T08:37:50.448Z,98.60
2022-07-27T08:43:07.083Z,97.90
2022-07-27T08:45:34.882Z,98.00
2022-07-27T08:48:02.364Z,98.70
2022-07-27T08:50:30.869Z,98.70
2022-07-27T08:53:05.492Z,98.50
2022-07-27T08:55:36.431Z,97.80
2022-07-27T08:58:04.361Z,96.90
2022-07-27T09:00:33.647Z,97.40
2022-07-27T09:03:01.197Z,96.60
2022-07-27T09:05:36.951Z,96.90
2022-07-27T09:08:18.034Z,97.30
2022-07-27T09:10:45.190Z,97.50
2022-07-27T09:13:26.768Z,97.20
2022-07-27T09:16:19.291Z,97.40
2022-07-27T09:18:47.667Z,98.30
2022-07-27T09:21:23.335Z,97.90
2022-07-27T09:24:23.236Z,97.50
2022-07-27T09:27:05.741Z,97.20
2022-07-27T09:29:37.230Z,97.40
2022-07-27T09:32:16.542Z,96.30
2022-07-27T09:34:43.955Z,96.00
2022-07-27T09:37:12.234Z,96.50
2022-07-27T09:39:39.413Z,95.20
2022-07-27T09:42:08.187Z,96.50
2022-07-27T09:44:42.091Z,97.30
2022-07-27T09:47:32.020Z,96.00
2022-07-27T09:50:23.636Z,96.20
2022-07-27T09:52:50.629Z,96.70
2022-07-27T09:55:21.091Z,97.20
2022-07-27T09:57:57.104Z,96.80
2022-07-27T10:00:27.211Z,96.90
2022-07-27T10:02:55.150Z,96.80
2022-07-27T10:05:22.967Z,97.20
2022-07-27T10:07:53.324Z,96.70
2022-07-27T10:10:22.431Z,97.40
2022-07-27T10:12:54.495Z,98.30
2022-07-27T10:15:24.359Z,98.60
2022-07-27T10:18:01.850Z,99.00
2022-07-27T10:20:29.869Z,98.50
2022-07-27T10:22:58.973Z,98.50
2022-07-27T10:25:32.657Z,98.70
2022-07-27T10:28:17.604Z,98.90
2022-07-27T10:30:48.159Z,98.10
2022-07-27T10:33:43.768Z,97.00
2022-07-27T10:36:24.089Z,96.90
2022-07-27T10:38:56.509Z,96.60
2022-07-27T10:41:37.661Z,96.70
2022-07-27T10:44:22.971Z,94.80
2022-07-27T10:47:03.742Z,92.90
2022-07-27T10:49:40.287Z,94.00
2022-07-27T10:52:49.071Z,94.00
2022-07-27T10:55:45.203Z,93.90
2022-07-27T10:58:15.157Z,94.30
2022-07-27T11:00:55.175Z,94.80
2022-07-27T11:03:34.237Z,94.20
2022-07-27T11:06:32.521Z,93.70
2022-07-27T11:11:49.909Z,92.40
2022-07-27T11:14:19.438Z,92.30
2022-07-27T11:17:24.355Z,93.00
2022-07-27T11:20:02.196Z,93.00
2022-07-27T11:23:03.197Z,90.80
2022-07-27T11:25:21.642Z,91.50
2022-07-27T11:27:49.895Z,92.60
2022-07-27T11:30:28.045Z,91.40
2022-07-27T11:32:55.997Z,92.70
2022-07-27T11:35:23.044Z,92.30
2022-07-27T11:38:05.265Z,92.40
2022-07-27T11:40:59.423Z,88.00
2022-07-27T11:43:39.237Z,90.00
2022-07-27T11:46:25.469Z,88.20
2022-07-27T11:49:06.576Z,85.00
2022-07-27T11:51:47.297Z,83.70
2022-07-27T11:54:22.173Z,84.00
2022-07-27T11:56:55.967Z,86.50
2022-07-27T11:59:31.721Z,85.90
2022-07-27T12:02:00.358Z,88.30
2022-07-27T12:04:32.401Z,89.10
2022-07-27T12:07:17.776Z,89.40
2022-07-27T12:09:54.626Z,90.50
2022-07-27T12:12:29.459Z,86.80
2022-07-27T12:15:42.964Z,83.20
2022-07-27T12:18:00.374Z,85.00
2022-07-27T12:20:36.264Z,86.30
2022-07-27T12:23:08.946Z,87.20
2022-07-27T12:25:36.509Z,87.90
2022-07-27T12:28:13.135Z,88.40
2022-07-27T12:30:42.419Z,89.20
2022-07-27T12:33:48.325Z,90.00
2022-07-27T12:36:26.872Z,86.50
2022-07-27T12:38:53.872Z,84.70
2022-07-27T12:41:26.586Z,84.50
2022-07-27T12:44:07.074Z,86.40
2022-07-27T12:46:34.293Z,87.30
2022-07-27T12:49:01.332Z,84.50
2022-07-27T12:51:28.415Z,86.80
2022-07-27T12:53:55.354Z,86.70
2022-07-27T12:56:26.906Z,87.00
2022-07-27T12:59:03.010Z,88.60
2022-07-27T13:01:30.372Z,87.60
2022-07-27T13:03:57.410Z,87.50
2022-07-27T13:06:24.833Z,86.30
2022-07-27T13:08:51.741Z,85.90
2022-07-27T13:11:19.001Z,86.80
2022-07-27T13:13:45.949Z,89.30
2022-07-27T13:16:12.960Z,89.40
2022-07-27T13:18:40.002Z,89.00
2022-07-27T13:21:07.141Z,90.70
2022-07-27T13:23:34.143Z,90.40
2022-07-27T13:26:01.123Z,89.90
2022-07-27T13:28:28.181Z,88.80
2022-07-27T13:30:55.212Z,88.90
2022-07-27T13:33:22.110Z,86.80
2022-07-27T13:35:51.682Z,87.80
2022-07-27T13:38:28.498Z,87.70
2022-07-27T13:40:55.635Z,86.40
2022-07-27T13:43:22.767Z,85.70
2022-07-27T13:45:49.796Z,86.10
2022-07-27T13:48:16.982Z,84.20
2022-07-27T13:50:44.120Z,85.50
2022-07-27T13:53:15.251Z,85.10
2022-07-27T13:55:44.379Z,85.50
2022-07-27T13:58:14.358Z,86.10
2022-07-27T14:00:41.923Z,86.70
2022-07-27T14:03:09.637Z,87.90
2022-07-27T14:05:39.488Z,86.40
2022-07-27T14:08:10.085Z,86.00
2022-07-27T14:10:41.553Z,84.60
2022-07-27T14:13:12.193Z,86.40
2022-07-27T14:15:52.692Z,86.50
2022-07-27T14:18:28.257Z,87.20
2022-07-27T14:20:57.882Z,86.70
2022-07-27T14:23:26.226Z,85.30
2022-07-27T14:25:54.586Z,86.60
2022-07-27T14:28:22.271Z,87.90
2022-07-27T14:30:49.992Z,86.00
2022-07-27T14:33:17.697Z,85.70
2022-07-27T14:35:46.161Z,87.00
2022-07-27T14:38:13.689Z,85.80
2022-07-27T14:40:53.818Z,87.10
2022-07-27T14:43:22.148Z,85.60
2022-07-27T14:45:50.017Z,84.90
2022-07-27T14:48:28.212Z,83.00
2022-07-27T14:51:01.449Z,82.80
2022-07-27T14:53:28.444Z,84.00
2022-07-27T14:55:55.603Z,82.10
2022-07-27T14:58:22.862Z,80.50
2022-07-27T15:00:49.988Z,80.60
2022-07-27T15:03:17.644Z,79.80
2022-07-27T15:05:49.548Z,79.20
2022-07-27T15:08:16.952Z,80.60
2022-07-27T15:10:44.084Z,80.40
2022-07-27T15:13:11.140Z,82.60
2022-07-27T15:15:38.099Z,81.90
2022-07-27T15:18:07.692Z,81.80
2022-07-27T15:20:34.685Z,79.40
2022-07-27T15:23:04.029Z,80.30
2022-07-27T15:25:31.061Z,81.60
2022-07-27T15:27:58.153Z,83.50
2022-07-27T15:30:25.353Z,81.10
2022-07-27T15:32:52.453Z,82.20
2022-07-27T15:35:19.485Z,82.30
2022-07-27T15:37:53.933Z,82.80
2022-07-27T15:40:38.067Z,82.00
2022-07-27T15:43:13.019Z,82.40
2022-07-27T15:45:42.760Z,83.50
2022-07-27T15:48:12.089Z,83.50
2022-07-27T15:50:42.540Z,84.00
2022-07-27T15:53:11.077Z,82.70
2022-07-27T15:55:38.667Z,83.90
2022-07-27T15:58:06.905Z,84.20
2022-07-27T16:00:39.509Z,83.70
2022-07-27T16:03:10.136Z,84.00
2022-07-27T16:05:38.365Z,83.40
2022-07-27T16:08:09.087Z,83.60
2022-07-27T16:10:40.792Z,83.50
2022-07-27T16:13:10.298Z,83.00
2022-07-27T16:15:56.518Z,83.40
2022-07-27T16:18:24.199Z,84.00
2022-07-27T16:20:52.202Z,84.20
2022-07-27T16:23:21.974Z,83.50
2022-07-27T16:26:05.719Z,84.40
2022-07-27T16:28:45.861Z,84.60
2022-07-27T16:31:29.787Z,85.70
2022-07-27T16:33:59.608Z,85.50
2022-07-27T16:36:26.728Z,85.40
2022-07-27T16:38:53.683Z,85.60
2022-07-27T16:41:22.284Z,85.60
2022-07-27T16:43:49.918Z,85.90
2022-07-27T16:46:17.674Z,87.10
2022-07-27T16:48:45.488Z,85.90
2022-07-27T16:51:14.606Z,86.90
2022-07-27T16:53:44.734Z,88.30
2022-07-27T16:56:12.380Z,87.70
2022-07-27T16:58:39.868Z,87.00
2022-07-27T17:01:07.999Z,88.00
2022-07-27T17:03:39.232Z,87.20
2022-07-27T17:06:07.313Z,87.60
2022-07-27T17:08:36.109Z,86.10
2022-07-27T17:11:06.230Z,87.00
2022-07-27T17:13:34.518Z,87.00
2022-07-27T17:16:04.343Z,87.90
2022-07-27T17:18:39.002Z,87.60
2022-07-27T17:21:07.575Z,88.10
2022-07-27T17:23:38.013Z,89.40
2022-07-27T17:26:09.987Z,89.50
2022-07-27T17:28:39.670Z,89.20
2022-07-27T17:31:09.976Z,89.90
2022-07-27T17:33:38.821Z,89.20
2022-07-27T17:36:10.881Z,89.80
2022-07-27T17:38:45.743Z,89.80
2022-07-27T17:41:14.294Z,90.40
2022-07-27T17:43:41.929Z,89.70
2022-07-27T17:46:11.033Z,90.20
2022-07-27T17:48:38.755Z,90.10
2022-07-27T17:51:08.573Z,90.00
2022-07-27T17:53:35.516Z,90.40
2022-07-27T17:56:02.723Z,90.40
2022-07-27T17:58:30.595Z,90.10
2022-07-27T18:00:58.197Z,90.60
2022-07-27T18:03:25.269Z,90.70
2022-07-27T18:05:52.365Z,90.90
2022-07-27T18:08:19.423Z,90.80
2022-07-27T18:10:46.338Z,90.40
2022-07-27T18:13:13.321Z,90.10
2022-07-27T18:15:50.293Z,89.30
2022-07-27T18:18:25.629Z,89.30
2022-07-27T18:20:56.173Z,89.70
2022-07-27T18:23:27.932Z,91.30
2022-07-27T18:25:55.301Z,90.80
2022-07-27T18:28:22.540Z,91.60
2022-07-27T18:30:51.788Z,91.80
2022-07-27T18:33:19.790Z,91.30
2022-07-27T18:35:47.280Z,90.70
2022-07-27T18:38:14.842Z,90.80
2022-07-27T18:40:46.688Z,91.20
2022-07-27T18:43:15.417Z,91.40
2022-07-27T18:45:43.107Z,91.40
2022-07-27T18:48:10.286Z,91.10
2022-07-27T18:50:39.798Z,90.80
2022-07-27T18:53:08.183Z,90.40
2022-07-27T18:55:35.529Z,90.50
2022-07-27T18:58:03.557Z,90.70
2022-07-27T19:00:31.313Z,90.90
2022-07-27T19:02:58.665Z,91.30
2022-07-27T19:05:40.652Z,91.50
2022-07-27T19:08:12.988Z,91.70
2022-07-27T19:10:44.464Z,92.30
2022-07-27T19:13:12.506Z,92.90
2022-07-27T19:15:40.092Z,93.20
2022-07-27T19:18:07.623Z,93.40
2022-07-27T19:20:36.390Z,93.20
2022-07-27T19:23:05.326Z,93.20
2022-07-27T19:25:33.697Z,93.30
2022-07-27T19:28:00.976Z,93.20
2022-07-27T19:30:28.186Z,93.10
2022-07-27T19:32:55.303Z,92.70
2022-07-27T19:35:22.207Z,92.40
2022-07-27T19:37:49.145Z,92.60
2022-07-27T19:43:06.830Z,93.10
2022-07-27T19:45:35.251Z,93.60
2022-07-27T19:48:05.438Z,93.90
2022-07-27T19:50:32.500Z,93.90
2022-07-27T19:53:00.497Z,93.80
2022-07-27T19:55:27.596Z,94.10
2022-07-27T19:57:54.968Z,93.80
2022-07-27T20:00:22.227Z,93.90
2022-07-27T20:02:49.326Z,94.00
2022-07-27T20:05:16.772Z,94.00
2022-07-27T20:07:44.381Z,94.00
2022-07-27T20:10:11.938Z,94.00
2022-07-27T20:12:39.111Z,94.00
2022-07-27T20:15:06.833Z,93.80
2022-07-27T20:17:37.046Z,93.80
2022-07-27T20:20:09.437Z,94.00
2022-07-27T20:22:39.206Z,94.30
2022-07-27T20:25:09.915Z,94.60
2022-07-27T20:27:38.024Z,94.90
2022-07-27T20:30:05.725Z,95.30
2022-07-27T20:32:32.776Z,95.70
2022-07-27T20:34:59.843Z,96.10
2022-07-27T20:37:27.161Z,96.50
2022-07-27T20:39:54.400Z,97.90
2022-07-27T20:42:21.414Z,98.30
2022-07-27T20:44:48.348Z,98.30
2022-07-27T20:47:15.568Z,97.70
2022-07-27T20:49:42.527Z,97.00
2022-07-27T20:52:09.773Z,97.10
2022-07-27T20:54:38.282Z,97.40
2022-07-27T20:57:05.469Z,97.70
2022-07-27T20:59:33.203Z,98.00
2022-07-27T21:02:00.858Z,98.40
2022-07-27T21:04:27.916Z,98.50
2022-07-27T21:06:54.959Z,98.80
2022-07-27T21:09:22.124Z,99.20
2022-07-27T21:11:49.808Z,99.90
2022-07-27T21:14:16.801Z,99.90
2022-07-27T21:16:44.042Z,99.90
2022-07-27T21:19:12.021Z,99.90
2022-07-27T21:21:39.401Z,99.90
2022-07-27T21:24:17.063Z,99.90
2022-07-27T21:26:49.892Z,99.90
2022-07-27T21:29:18.323Z,99.90
2022-07-27T21:31:46.768Z,99.90
2022-07-27T21:34:19.735Z,99.90
2022-07-27T21:36:47.401Z,99.90
2022-07-27T21:39:14.546Z,99.90
2022-07-27T21:41:41.743Z,99.90
2022-07-27T21:44:08.636Z,99.90
2022-07-27T21:46:35.722Z,99.90
2022-07-27T21:49:03.333Z,99.90
2022-07-27T21:51:30.648Z,99.90
2022-07-27T21:53:57.591Z,99.90
2022-07-27T21:56:24.657Z,99.90
2022-07-27T21:58:51.716Z,99.90
2022-07-27T22:01:19.248Z,99.90
2022-07-27T22:03:46.429Z,99.90
2022-07-27T22:06:13.537Z,99.90
2022-07-27T22:08:40.457Z,99.90
2022-07-27T22:11:07.572Z,99.90
2022-07-27T22:13:34.611Z,99.90
2022-07-27T22:16:01.797Z,99.90
2022-07-27T22:18:28.934Z,99.90
2022-07-27T22:20:56.558Z,99.90
2022-07-27T22:23:24.605Z,99.90
2022-07-27T22:25:52.238Z,99.90
2022-07-27T22:28:19.177Z,99.90
2022-07-27T22:31:16.544Z,99.90
2022-07-27T22:33:34.700Z,99.90
2022-07-27T22:36:01.600Z,99.90
2022-07-27T22:38:29.301Z,99.90
2022-07-27T22:40:56.435Z,99.90
2022-07-27T22:43:23.565Z,99.90
2022-07-27T22:45:51.880Z,99.90
2022-07-27T22:48:19.045Z,99.90
2022-07-27T22:50:46.089Z,99.90
2022-07-27T22:53:14.928Z,99.90
2022-07-27T22:55:42.743Z,99.90
2022-07-27T22:58:09.926Z,99.90
2022-07-27T23:00:36.975Z,99.60
2022-07-27T23:03:04.345Z,99.90
2022-07-27T23:05:31.633Z,99.90
2022-07-27T23:07:58.708Z,99.90
2022-07-27T23:10:44.361Z,99.90
2022-07-27T23:13:13.119Z,99.90
2022-07-27T23:15:40.143Z,99.90
2022-07-27T23:18:08.256Z,99.90
2022-07-27T23:20:35.331Z,99.90
2022-07-27T23:23:02.727Z,99.90
2022-07-27T23:25:36.406Z,99.90
2022-07-27T23:28:05.362Z,99.90
2022-07-27T23:30:32.355Z,99.90
2022-07-27T23:32:59.335Z,99.90
2022-07-27T23:35:26.760Z,99.90
2022-07-27T23:37:53.812Z,99.90
2022-07-27T23:40:20.757Z,99.90
2022-07-27T23:42:47.953Z,99.90
2022-07-27T23:45:14.899Z,99.90
2022-07-27T23:47:42.158Z,99.90
2022-07-27T23:50:10.929Z,99.90
2022-07-27T23:52:38.255Z,99.90
2022-07-27T23:55:06.319Z,99.90
2022-07-27T23:57:33.325Z,99.90
